createdAt,value
2023-01-19T00:00:56.582Z,0.30
2023-01-19T00:03:23.438Z,0.20
2023-01-19T00:05:50.854Z,0.30
2023-01-19T00:08:17.828Z,0.50
2023-01-19T00:10:48.782Z,0.20
2023-01-19T00:13:16.310Z,0.53
2023-01-19T00:15:43.825Z,0.50
2023-01-19T00:18:11.376Z,0.50
2023-01-19T00:20:39.406Z,0.30
2023-01-19T00:23:08.085Z,0.40
2023-01-19T00:25:35.917Z,0.43
2023-01-19T00:28:03.059Z,0.40
2023-01-19T00:30:30.082Z,0.37
2023-01-19T00:32:57.188Z,0.47
2023-01-19T00:35:24.249Z,0.30
2023-01-19T00:37:51.545Z,0.30
2023-01-19T00:40:18.800Z,0.40
2023-01-19T00:42:48.741Z,0.40
2023-01-19T00:45:19.032Z,0.30
2023-01-19T00:47:48.202Z,0.43
2023-01-19T00:50:17.159Z,0.50
2023-01-19T00:52:45.095Z,0.80
2023-01-19T00:55:14.832Z,0.50
2023-01-19T00:57:42.952Z,0.50
2023-01-19T01:00:15.345Z,0.40
2023-01-19T01:02:44.266Z,0.30
2023-01-19T01:05:12.426Z,0.30
2023-01-19T01:07:44.760Z,0.33
2023-01-19T01:10:17.477Z,0.30
2023-01-19T01:12:53.626Z,0.43
2023-01-19T01:15:26.500Z,0.67
2023-01-19T01:17:54.044Z,0.53
2023-01-19T01:20:23.723Z,0.30
2023-01-19T01:22:53.517Z,0.40
2023-01-19T01:25:22.761Z,0.40
2023-01-19T01:27:50.564Z,0.40
2023-01-19T01:30:17.824Z,0.50
2023-01-19T01:32:44.979Z,0.63
2023-01-19T01:35:12.847Z,0.50
2023-01-19T01:37:40.674Z,0.33
2023-01-19T01:40:08.384Z,0.50
2023-01-19T01:42:35.354Z,0.40
2023-01-19T01:45:07.757Z,0.53
2023-01-19T01:47:47.067Z,0.80
2023-01-19T01:50:35.481Z,0.60
2023-01-19T01:53:08.365Z,0.50
2023-01-19T01:55:45.734Z,0.40
2023-01-19T01:58:13.808Z,0.50
2023-01-19T02:00:59.887Z,0.60
2023-01-19T02:03:28.057Z,0.23
2023-01-19T02:05:59.641Z,0.53
2023-01-19T02:08:57.980Z,0.50
2023-01-19T02:11:44.269Z,0.20
2023-01-19T02:14:11.263Z,0.37
2023-01-19T02:16:38.843Z,0.30
2023-01-19T02:19:08.844Z,0.40
2023-01-19T02:21:58.115Z,0.40
2023-01-19T02:24:25.846Z,0.30
2023-01-19T02:26:52.811Z,0.27
2023-01-19T02:29:23.150Z,0.40
2023-01-19T02:31:51.023Z,0.37
2023-01-19T02:34:20.449Z,0.30
2023-01-19T02:36:47.541Z,0.20
2023-01-19T02:39:20.147Z,0.20
2023-01-19T02:41:52.758Z,0.50
2023-01-19T02:44:21.353Z,0.47
2023-01-19T02:46:48.955Z,0.33
2023-01-19T02:49:15.916Z,0.37
2023-01-19T02:51:44.602Z,0.30
2023-01-19T02:54:33.213Z,0.33
2023-01-19T02:57:06.914Z,0.40
2023-01-19T02:59:43.705Z,0.53
2023-01-19T03:02:33.439Z,0.20
2023-01-19T03:05:26.721Z,0.23
2023-01-19T03:08:20.630Z,0.10
2023-01-19T03:11:03.962Z,0.20
2023-01-19T03:13:39.340Z,0.20
2023-01-19T03:16:22.507Z,0.20
2023-01-19T03:18:56.956Z,0.20
2023-01-19T03:21:27.613Z,0.30
2023-01-19T03:23:59.774Z,0.47
2023-01-19T03:26:30.827Z,0.20
2023-01-19T03:29:02.570Z,0.30
2023-01-19T03:31:33.137Z,0.30
2023-01-19T03:34:06.820Z,0.40
2023-01-19T03:36:42.798Z,0.40
2023-01-19T03:39:12.468Z,0.30
2023-01-19T03:41:40.449Z,0.37
2023-01-19T03:44:07.855Z,0.47
2023-01-19T03:46:35.128Z,0.40
2023-01-19T03:49:02.152Z,0.50
2023-01-19T03:51:29.754Z,0.50
2023-01-19T03:53:56.962Z,0.30
2023-01-19T03:56:25.601Z,0.50
2023-01-19T03:58:52.731Z,0.30
2023-01-19T04:01:23.175Z,0.50
2023-01-19T04:03:51.597Z,0.30
2023-01-19T04:06:20.633Z,0.60
2023-01-19T04:08:49.537Z,0.40
2023-01-19T04:11:17.425Z,0.40
2023-01-19T04:13:44.854Z,0.23
2023-01-19T04:16:12.904Z,0.30
2023-01-19T04:18:41.336Z,0.50
2023-01-19T04:21:08.515Z,0.37
2023-01-19T04:23:35.555Z,0.40
2023-01-19T04:26:07.229Z,0.20
2023-01-19T04:28:37.170Z,0.40
2023-01-19T04:31:05.572Z,0.20
2023-01-19T04:33:33.101Z,0.13
2023-01-19T04:36:00.506Z,0.20
2023-01-19T04:38:27.720Z,0.30
2023-01-19T04:40:54.989Z,0.40
2023-01-19T04:43:23.511Z,0.27
2023-01-19T04:45:51.269Z,0.30
2023-01-19T04:48:19.196Z,0.30
2023-01-19T04:50:46.751Z,0.30
2023-01-19T04:53:14.612Z,0.57
2023-01-19T04:55:41.441Z,0.30
2023-01-19T04:58:08.576Z,0.40
2023-01-19T05:00:36.761Z,0.60
2023-01-19T05:03:04.937Z,0.40
2023-01-19T05:05:33.312Z,0.50
2023-01-19T05:08:00.630Z,0.40
2023-01-19T05:10:27.938Z,0.50
2023-01-19T05:12:55.782Z,0.57
2023-01-19T05:15:22.896Z,0.40
2023-01-19T05:17:50.549Z,0.30
2023-01-19T05:20:17.770Z,0.50
2023-01-19T05:22:53.889Z,0.50
2023-01-19T05:25:22.341Z,0.73
2023-01-19T05:27:49.443Z,0.40
2023-01-19T05:30:16.727Z,0.43
2023-01-19T05:32:43.884Z,0.60
2023-01-19T05:35:10.722Z,0.77
2023-01-19T05:37:37.689Z,0.60
2023-01-19T05:40:05.488Z,0.50
2023-01-19T05:42:33.005Z,0.80
2023-01-19T05:45:00.366Z,0.60
2023-01-19T05:47:29.793Z,0.60
2023-01-19T05:49:56.992Z,0.67
2023-01-19T05:52:25.091Z,0.80
2023-01-19T05:54:54.706Z,0.67
2023-01-19T05:57:22.438Z,0.80
2023-01-19T05:59:50.201Z,0.60
2023-01-19T06:02:17.512Z,0.57
2023-01-19T06:04:44.889Z,0.80
2023-01-19T06:07:12.003Z,0.53
2023-01-19T06:09:38.989Z,0.53
2023-01-19T06:12:06.378Z,0.80
2023-01-19T06:14:33.473Z,0.60
2023-01-19T06:17:00.725Z,0.60
2023-01-19T06:19:27.759Z,0.80
2023-01-19T06:21:54.775Z,0.70
2023-01-19T06:24:22.064Z,0.83
2023-01-19T06:26:49.154Z,0.97
2023-01-19T06:29:16.555Z,0.77
2023-01-19T06:31:43.558Z,1.30
2023-01-19T06:34:10.929Z,0.70
2023-01-19T06:36:38.694Z,1.00
2023-01-19T06:39:06.374Z,1.00
2023-01-19T06:41:34.382Z,0.77
2023-01-19T06:44:02.861Z,0.90
2023-01-19T06:46:30.006Z,0.80
2023-01-19T06:48:56.902Z,0.77
2023-01-19T06:51:24.636Z,0.97
2023-01-19T06:53:51.757Z,0.70
2023-01-19T06:56:19.071Z,0.83
2023-01-19T06:58:50.817Z,0.80
2023-01-19T07:01:18.351Z,0.80
2023-01-19T07:03:46.957Z,0.80
2023-01-19T07:06:14.180Z,1.00
2023-01-19T07:08:41.087Z,1.00
2023-01-19T07:11:25.977Z,1.10
2023-01-19T07:13:58.391Z,0.47
2023-01-19T07:16:25.555Z,0.80
2023-01-19T07:18:52.679Z,1.03
2023-01-19T07:21:20.874Z,1.00
2023-01-19T07:23:52.192Z,1.10
2023-01-19T07:26:21.710Z,0.83
2023-01-19T07:28:49.620Z,0.97
2023-01-19T07:31:16.739Z,0.93
2023-01-19T07:33:44.151Z,1.10
2023-01-19T07:36:11.622Z,1.00
2023-01-19T07:38:38.493Z,1.23
2023-01-19T07:41:08.007Z,1.20
2023-01-19T07:43:35.295Z,1.10
2023-01-19T07:46:05.696Z,0.87
2023-01-19T07:48:33.346Z,1.50
2023-01-19T07:51:05.883Z,1.40
2023-01-19T07:53:33.199Z,1.37
2023-01-19T07:56:00.229Z,0.90
2023-01-19T07:58:27.732Z,1.20
2023-01-19T08:00:54.943Z,0.77
2023-01-19T08:03:22.142Z,1.13
2023-01-19T08:05:53.284Z,0.97
2023-01-19T08:08:21.145Z,1.40
2023-01-19T08:10:51.833Z,1.00
2023-01-19T08:13:19.050Z,1.03
2023-01-19T08:15:53.220Z,1.47
2023-01-19T08:18:20.644Z,1.00
2023-01-19T08:20:47.670Z,1.63
2023-01-19T08:23:15.098Z,1.80
2023-01-19T08:25:45.103Z,1.07
2023-01-19T08:28:14.830Z,1.30
2023-01-19T08:30:44.486Z,0.90
2023-01-19T08:33:12.874Z,1.13
2023-01-19T08:35:42.957Z,1.40
2023-01-19T08:38:10.812Z,1.60
2023-01-19T08:40:40.350Z,1.20
2023-01-19T08:43:10.200Z,1.40
2023-01-19T08:45:41.572Z,0.87
2023-01-19T08:48:08.609Z,1.17
2023-01-19T08:50:35.674Z,0.60
2023-01-19T08:53:06.460Z,0.97
2023-01-19T08:55:37.920Z,1.10
2023-01-19T08:58:06.083Z,0.80
2023-01-19T09:00:34.698Z,0.90
2023-01-19T09:03:04.583Z,0.60
2023-01-19T09:05:37.565Z,0.90
2023-01-19T09:08:11.871Z,0.77
2023-01-19T09:10:44.174Z,0.50
2023-01-19T09:13:12.011Z,0.90
2023-01-19T09:15:39.995Z,0.53
2023-01-19T09:18:13.935Z,0.60
2023-01-19T09:20:42.842Z,0.70
2023-01-19T09:23:15.459Z,0.50
2023-01-19T09:25:44.740Z,0.67
2023-01-19T09:28:14.733Z,0.53
2023-01-19T09:30:43.195Z,0.77
2023-01-19T09:33:12.498Z,0.67
2023-01-19T09:35:40.511Z,0.70
2023-01-19T09:38:09.389Z,0.80
2023-01-19T09:40:47.363Z,0.57
2023-01-19T09:43:46.698Z,0.80
2023-01-19T09:46:25.440Z,0.77
2023-01-19T09:48:53.659Z,0.80
2023-01-19T09:51:48.453Z,0.60
2023-01-19T09:54:19.010Z,0.70
2023-01-19T09:56:51.328Z,0.90
2023-01-19T09:59:33.812Z,1.33
2023-01-19T10:02:06.779Z,0.80
2023-01-19T10:04:40.429Z,1.20
2023-01-19T10:07:29.138Z,1.00
2023-01-19T10:10:08.455Z,1.03
2023-01-19T10:12:57.682Z,0.80
2023-01-19T10:15:55.441Z,0.70
2023-01-19T10:18:35.940Z,0.97
2023-01-19T10:21:28.428Z,1.03
2023-01-19T10:24:00.930Z,1.07
2023-01-19T10:26:34.428Z,1.23
2023-01-19T10:29:10.903Z,0.97
2023-01-19T10:31:42.313Z,0.90
2023-01-19T10:34:21.519Z,0.83
2023-01-19T10:36:58.003Z,0.73
2023-01-19T10:39:25.030Z,0.80
2023-01-19T10:41:53.625Z,0.80
2023-01-19T10:44:26.208Z,0.53
2023-01-19T10:46:55.675Z,0.80
2023-01-19T10:49:39.135Z,0.63
2023-01-19T10:52:08.218Z,0.63
2023-01-19T10:54:37.488Z,0.57
2023-01-19T10:57:08.945Z,0.33
2023-01-19T10:59:51.220Z,0.47
2023-01-19T11:02:21.336Z,0.70
2023-01-19T11:04:51.468Z,0.80
2023-01-19T11:07:32.514Z,0.80
2023-01-19T11:10:20.993Z,0.60
2023-01-19T11:13:03.406Z,0.53
2023-01-19T11:15:54.435Z,0.20
2023-01-19T11:18:27.341Z,0.60
2023-01-19T11:20:56.892Z,0.53
2023-01-19T11:23:34.165Z,0.40
2023-01-19T11:26:05.260Z,0.73
2023-01-19T11:28:36.632Z,0.40
2023-01-19T11:31:15.838Z,0.83
2023-01-19T11:33:45.846Z,0.60
2023-01-19T11:36:28.512Z,1.10
2023-01-19T11:38:59.075Z,0.67
2023-01-19T11:41:33.392Z,0.70
2023-01-19T11:44:16.319Z,0.60
2023-01-19T11:46:50.165Z,0.97
2023-01-19T11:49:50.302Z,0.53
2023-01-19T11:52:27.375Z,0.60
2023-01-19T11:55:03.491Z,0.70
2023-01-19T11:57:30.816Z,0.57
2023-01-19T12:00:03.501Z,0.50
2023-01-19T12:02:45.244Z,0.77
2023-01-19T12:05:16.072Z,0.57
2023-01-19T12:07:46.055Z,0.70
2023-01-19T12:10:30.235Z,0.77
2023-01-19T12:12:58.093Z,0.60
2023-01-19T12:15:44.720Z,0.43
2023-01-19T12:18:24.822Z,0.43
2023-01-19T12:20:54.678Z,0.60
2023-01-19T12:23:46.664Z,0.97
2023-01-19T12:26:16.712Z,0.77
2023-01-19T12:28:47.589Z,0.50
2023-01-19T12:31:17.795Z,0.70
2023-01-19T12:33:45.477Z,0.50
2023-01-19T12:36:31.033Z,0.90
2023-01-19T12:39:21.048Z,0.50
2023-01-19T12:41:49.690Z,0.70
2023-01-19T12:44:28.520Z,0.53
2023-01-19T12:47:24.624Z,0.90
2023-01-19T12:50:00.503Z,0.90
2023-01-19T12:52:36.680Z,0.87
2023-01-19T12:55:20.192Z,0.90
2023-01-19T12:58:01.368Z,0.60
2023-01-19T13:00:47.132Z,0.50
2023-01-19T13:03:17.561Z,0.60
2023-01-19T13:05:44.552Z,0.80
2023-01-19T13:08:14.284Z,0.67
2023-01-19T13:11:00.494Z,0.97
2023-01-19T13:13:30.102Z,0.73
2023-01-19T13:16:20.541Z,0.90
2023-01-19T13:19:05.856Z,0.80
2023-01-19T13:21:39.950Z,1.20
2023-01-19T13:24:11.568Z,0.87
2023-01-19T13:27:00.419Z,0.70
2023-01-19T13:29:34.574Z,0.87
2023-01-19T13:32:21.760Z,0.50
2023-01-19T13:34:53.690Z,0.30
2023-01-19T13:37:23.863Z,0.30
2023-01-19T13:39:53.902Z,0.97
2023-01-19T13:42:41.958Z,0.40
2023-01-19T13:45:33.543Z,0.30
2023-01-19T13:48:04.922Z,1.07
2023-01-19T13:50:34.254Z,0.20
2023-01-19T13:53:02.818Z,0.20
2023-01-19T13:55:31.671Z,0.80
2023-01-19T13:57:59.413Z,0.47
2023-01-19T14:00:29.625Z,0.27
2023-01-19T14:03:02.309Z,0.33
2023-01-19T14:05:34.672Z,0.60
2023-01-19T14:08:06.127Z,0.40
2023-01-19T14:10:35.299Z,0.87
2023-01-19T14:13:05.140Z,0.20
2023-01-19T14:15:34.704Z,0.40
2023-01-19T14:18:19.229Z,0.57
2023-01-19T14:21:15.867Z,0.60
2023-01-19T14:24:08.074Z,0.87
2023-01-19T14:26:38.427Z,0.60
2023-01-19T14:29:29.194Z,0.40
2023-01-19T14:32:21.227Z,0.40
2023-01-19T14:35:05.147Z,0.60
2023-01-19T14:37:37.372Z,0.60
2023-01-19T14:40:14.918Z,0.33
2023-01-19T14:42:50.545Z,0.57
2023-01-19T14:45:21.343Z,0.37
2023-01-19T14:48:04.008Z,0.70
2023-01-19T14:50:37.944Z,0.60
2023-01-19T14:53:08.806Z,0.43
2023-01-19T14:55:37.863Z,0.53
2023-01-19T14:58:13.173Z,0.60
2023-01-19T15:00:41.462Z,0.50
2023-01-19T15:03:10.041Z,0.80
2023-01-19T15:05:43.472Z,2.80
2023-01-19T15:08:17.977Z,1.00
2023-01-19T15:10:46.280Z,0.50
2023-01-19T15:13:20.547Z,0.33
2023-01-19T15:15:48.059Z,0.40
2023-01-19T15:18:22.347Z,0.23
2023-01-19T15:20:50.172Z,0.53
2023-01-19T15:23:17.043Z,0.30
2023-01-19T15:25:44.165Z,0.40
2023-01-19T15:28:17.589Z,0.30
2023-01-19T15:30:44.947Z,0.27
2023-01-19T15:33:22.596Z,0.50
2023-01-19T15:35:50.520Z,0.53
2023-01-19T15:38:17.532Z,0.30
2023-01-19T15:40:44.921Z,0.30
2023-01-19T15:43:11.969Z,0.23
2023-01-19T15:45:43.114Z,1.10
2023-01-19T15:48:12.319Z,0.40
2023-01-19T15:50:41.267Z,0.47
2023-01-19T15:53:13.933Z,0.50
2023-01-19T15:55:41.147Z,0.50
2023-01-19T15:58:08.413Z,0.60
2023-01-19T16:00:35.981Z,0.50
2023-01-19T16:03:03.533Z,0.50
2023-01-19T16:05:42.511Z,1.00
2023-01-19T16:08:11.768Z,6.33
2023-01-19T16:10:39.885Z,1.80
2023-01-19T16:13:06.817Z,2.27
2023-01-19T16:15:37.576Z,1.07
2023-01-19T16:18:05.918Z,1.80
2023-01-19T16:20:32.777Z,3.60
2023-01-19T16:23:13.760Z,3.23
2023-01-19T16:25:41.772Z,1.40
2023-01-19T16:28:09.329Z,2.57
2023-01-19T16:30:36.628Z,1.43
2023-01-19T16:33:05.317Z,0.67
2023-01-19T16:35:33.066Z,1.00
2023-01-19T16:38:00.149Z,0.90
2023-01-19T16:40:27.152Z,0.90
2023-01-19T16:42:54.711Z,0.83
2023-01-19T16:45:21.669Z,1.00
2023-01-19T16:47:50.739Z,0.70
2023-01-19T16:50:19.040Z,0.60
2023-01-19T16:52:46.366Z,0.83
2023-01-19T16:55:13.298Z,0.70
2023-01-19T16:57:40.316Z,1.00
2023-01-19T17:00:09.614Z,0.70
2023-01-19T17:02:36.787Z,0.60
2023-01-19T17:05:04.515Z,0.60
2023-01-19T17:07:31.541Z,0.40
2023-01-19T17:09:58.550Z,0.20
2023-01-19T17:12:25.630Z,0.17
2023-01-19T17:14:52.552Z,0.27
2023-01-19T17:17:20.051Z,0.20
2023-01-19T17:19:47.186Z,0.30
2023-01-19T17:22:15.073Z,0.20
2023-01-19T17:24:43.421Z,0.00
2023-01-19T17:27:10.652Z,0.10
2023-01-19T17:29:37.691Z,0.10
2023-01-19T17:32:04.862Z,0.13
2023-01-19T17:34:32.155Z,0.20
2023-01-19T17:37:03.388Z,0.10
2023-01-19T17:39:30.629Z,0.20
2023-01-19T17:41:57.965Z,0.20
2023-01-19T17:44:25.314Z,0.30
2023-01-19T17:46:52.195Z,0.13
2023-01-19T17:49:20.403Z,0.20
2023-01-19T17:51:52.149Z,0.80
2023-01-19T17:54:19.972Z,0.40
2023-01-19T17:56:47.544Z,0.50
2023-01-19T17:59:14.505Z,0.50
2023-01-19T18:01:42.869Z,0.60
2023-01-19T18:04:10.575Z,0.73
2023-01-19T18:06:38.644Z,0.30
2023-01-19T18:09:09.255Z,0.40
2023-01-19T18:11:36.889Z,0.20
2023-01-19T18:14:05.507Z,0.40
2023-01-19T18:16:32.776Z,0.40
2023-01-19T18:19:00.059Z,0.80
2023-01-19T18:21:28.953Z,0.70
2023-01-19T18:24:01.328Z,0.97
2023-01-19T18:26:29.610Z,0.60
2023-01-19T18:28:57.452Z,0.50
2023-01-19T18:31:25.836Z,0.60
2023-01-19T18:33:53.555Z,0.60
2023-01-19T18:36:20.912Z,0.53
2023-01-19T18:38:48.518Z,0.70
2023-01-19T18:41:20.697Z,0.80
2023-01-19T18:43:49.030Z,0.70
2023-01-19T18:46:17.128Z,0.87
2023-01-19T18:48:44.614Z,0.70
2023-01-19T18:51:13.946Z,0.70
2023-01-19T18:53:41.158Z,0.90
2023-01-19T18:56:11.240Z,0.87
2023-01-19T18:58:39.489Z,1.87
2023-01-19T19:01:22.316Z,2.93
2023-01-19T19:03:50.148Z,2.70
2023-01-19T19:06:20.617Z,1.80
2023-01-19T19:08:52.279Z,1.83
2023-01-19T19:11:21.357Z,1.57
2023-01-19T19:13:57.901Z,1.80
2023-01-19T19:16:25.235Z,2.00
2023-01-19T19:18:52.236Z,1.77
2023-01-19T19:21:21.844Z,1.47
2023-01-19T19:23:54.502Z,1.50
2023-01-19T19:26:21.981Z,1.30
2023-01-19T19:28:49.109Z,1.33
2023-01-19T19:31:20.683Z,0.97
2023-01-19T19:33:49.717Z,1.00
2023-01-19T19:36:17.035Z,0.90
2023-01-19T19:38:45.055Z,0.70
2023-01-19T19:41:14.443Z,1.00
2023-01-19T19:43:41.840Z,0.70
2023-01-19T19:46:11.789Z,0.90
2023-01-19T19:48:39.603Z,1.03
2023-01-19T19:51:17.559Z,0.70
2023-01-19T19:53:46.362Z,0.80
2023-01-19T19:56:13.764Z,1.00
2023-01-19T19:58:42.171Z,0.70
2023-01-19T20:01:10.409Z,1.17
2023-01-19T20:03:38.159Z,1.07
2023-01-19T20:06:10.732Z,1.27
2023-01-19T20:08:37.935Z,1.27
2023-01-19T20:11:16.914Z,1.30
2023-01-19T20:13:45.197Z,1.10
2023-01-19T20:16:14.846Z,1.30
2023-01-19T20:18:44.321Z,1.30
2023-01-19T20:21:16.671Z,1.20
2023-01-19T20:23:45.503Z,1.30
2023-01-19T20:26:14.377Z,1.20
2023-01-19T20:28:41.917Z,1.10
2023-01-19T20:31:22.454Z,1.30
2023-01-19T20:33:51.253Z,1.27
2023-01-19T20:36:20.012Z,0.90
2023-01-19T20:38:47.215Z,0.97
2023-01-19T20:41:15.267Z,0.90
2023-01-19T20:43:42.250Z,0.70
2023-01-19T20:46:09.544Z,0.73
2023-01-19T20:48:36.746Z,0.93
2023-01-19T20:51:06.995Z,0.70
2023-01-19T20:53:34.808Z,0.50
2023-01-19T20:56:11.610Z,0.70
2023-01-19T20:58:38.926Z,0.70
2023-01-19T21:01:18.966Z,0.70
2023-01-19T21:03:46.699Z,0.80
2023-01-19T21:06:14.791Z,0.60
2023-01-19T21:08:42.028Z,0.50
2023-01-19T21:11:09.834Z,0.40
2023-01-19T21:13:37.243Z,0.40
2023-01-19T21:16:05.116Z,2.20
2023-01-19T21:18:32.043Z,0.70
2023-01-19T21:20:59.120Z,0.47
2023-01-19T21:23:27.524Z,0.50
2023-01-19T21:25:57.425Z,0.40
2023-01-19T21:28:24.953Z,0.43
2023-01-19T21:30:53.429Z,0.50
2023-01-19T21:33:21.844Z,0.40
2023-01-19T21:35:54.638Z,0.60
2023-01-19T21:38:22.768Z,0.53
2023-01-19T21:40:50.433Z,0.63
2023-01-19T21:43:20.691Z,0.60
2023-01-19T21:45:48.900Z,0.47
2023-01-19T21:48:16.997Z,0.50
2023-01-19T21:50:44.355Z,0.50
2023-01-19T21:53:11.973Z,0.70
2023-01-19T21:55:44.601Z,0.70
2023-01-19T21:58:11.535Z,0.70
2023-01-19T22:00:38.574Z,0.50
2023-01-19T22:03:05.715Z,0.60
2023-01-19T22:05:37.139Z,0.70
2023-01-19T22:08:06.374Z,0.67
2023-01-19T22:10:37.266Z,0.43
2023-01-19T22:13:06.660Z,0.70
2023-01-19T22:15:33.816Z,0.60
2023-01-19T22:18:01.009Z,0.40
2023-01-19T22:20:28.228Z,0.57
2023-01-19T22:22:56.413Z,0.73
2023-01-19T22:25:27.704Z,0.70
2023-01-19T22:27:55.745Z,0.60
2023-01-19T22:30:22.713Z,0.63
2023-01-19T22:32:50.821Z,0.63
2023-01-19T22:35:17.795Z,0.40
2023-01-19T22:37:44.687Z,0.90
2023-01-19T22:40:12.258Z,0.57
2023-01-19T22:42:39.259Z,0.37
2023-01-19T22:45:07.033Z,0.60
2023-01-19T22:47:34.082Z,0.60
2023-01-19T22:50:00.997Z,0.60
2023-01-19T22:52:27.939Z,0.40
2023-01-19T22:54:56.800Z,0.67
2023-01-19T22:57:24.228Z,0.80
2023-01-19T22:59:51.061Z,0.73
2023-01-19T23:02:20.575Z,1.13
2023-01-19T23:04:47.768Z,0.40
2023-01-19T23:07:14.833Z,0.47
2023-01-19T23:09:41.848Z,0.50
2023-01-19T23:12:08.800Z,0.50
2023-01-19T23:14:36.452Z,0.50
2023-01-19T23:17:03.602Z,0.80
2023-01-19T23:19:30.764Z,0.63
2023-01-19T23:21:57.703Z,0.53
2023-01-19T23:24:24.873Z,0.50
2023-01-19T23:26:51.936Z,0.93
2023-01-19T23:29:20.425Z,0.60
2023-01-19T23:31:50.160Z,1.07
2023-01-19T23:34:17.126Z,1.47
2023-01-19T23:36:44.373Z,1.10
2023-01-19T23:39:22.261Z,1.50
2023-01-19T23:41:50.567Z,1.30
2023-01-19T23:44:18.100Z,0.90
2023-01-19T23:46:46.214Z,1.00
2023-01-19T23:49:13.690Z,0.90
2023-01-19T23:51:41.529Z,0.90
2023-01-19T23:54:08.799Z,1.10
2023-01-19T23:56:37.278Z,0.80
2023-01-19T23:59:07.100Z,0.70
